Vliegveldwaarnemingen Nederland - (AUTO) METAR

Luchtvaartmeteorologische informatie voor operationeel gebruik en vluchtvoorbereiding is beschikbaar op www.luchtvaartmeteo.nl.

ZCZC
SA212055 EHFS     VLISSINGEN AWS   NLD   8 m.
METAR EHFS 212055Z AUTO 32007KT 290V360 9999 SCT010/// 18/16 Q1013=

ZCZC
SA212055 EHSG     BSA   NLD   43 m.
METAR EHSG 212055Z AUTO 29004KT //// // FEW011/// BKN015/// 17/15
Q1014 RE//=

ZCZC
SA212125 EHKD     DE KOOY/DE KOOY   NLD   1 m.
METAR EHKD 212125Z AUTO 29007KT 250V320 9999 FEW011 SCT015 BKN025
16/14 Q1012 BLU=

ZCZC
SA212125 EHFD     F3-FB-1   NLD   50 m.
METAR EHFD 212125Z AUTO 32014KT 9999 SCT013/// OVC016/// 16/12 Q1011=

ZCZC
SA212125 EHAM     AMSTERDAM/SCHIPHOL   NLD   -3 m.
METAR EHAM 212125Z 30007KT 9999 FEW011 16/14 Q1013 NOSIG=

ZCZC
SA212125 EHVL     VLIELAND   NLD   10 m.
METAR EHVL 212125Z AUTO 31014KT 9999 FEW010 SCT014 BKN017 17/15 Q1012
 WHT=

ZCZC
SA212125 EHJR     K13-A   NLD   37 m.
METAR EHJR 212125Z AUTO 31010KT //// // ///////// 15/12 Q1013 RE//
W17/H9=

ZCZC
SA212125 EHLE     LELYSTAD/LELYSTAD   NLD   -3 m.
METAR EHLE 212125Z AUTO 30009KT 260V330 9999 FEW015/// 18/15 Q1012=

ZCZC
SA212125 EHLW     LEEUWARDEN/LEEUWARDEN   NLD   1 m.
METAR EHLW 212125Z AUTO 30009KT 260V330 9999 FEW006 SCT009 BKN013
18/16 Q1011 GRN=

ZCZC
SA212125 EHDL     ARNHEM/DEELEN   NLD   48 m.
METAR EHDL 212125Z AUTO 31005KT 240V010 9999 BKN037 OVC050 18/16
Q1012
BLACKBLU=

ZCZC
SA212125 EHGG     GRONINGEN/EELDE   NLD   5 m.
METAR EHGG 212125Z AUTO 27006KT 230V300 9999 FEW012/// BKN017///
OVC021/// 19/17 Q1010=

ZCZC
SA212125 EHSC     LICHTEILAND GOEREE   NLD   22 m.
METAR EHSC 212125Z AUTO 31011KT 9999 ///////// 17/14 Q1014 W18/H6=

ZCZC
SA212125 EHSA     EURO PLATFORM   NLD   19 m.
METAR EHSA 212125Z AUTO 30008KT 9999 ///////// 16/14 Q1014 W18/H6=

ZCZC
SA212125 EHWO     WOENSDRECHT/WOENSDRECHT   NLD   19 m.
METAR EHWO 212125Z AUTO 30005KT 250V320 9999 OVC150 17/15 Q1013 BLU=

ZCZC
SA212125 EHRD     ROTTERDAM/THE HAGUE AIRPORT   NLD   -5 m.
METAR EHRD 212125Z AUTO 28004KT 240V320 9999 NSC 16/15 Q1013 NOSIG=

ZCZC
SA212125 EHGR     GILZE-RIJEN/GILZE-RIJEN   NLD   14 m.
METAR EHGR 212125Z AUTO 27005KT 9999 NCD 17/15 Q1013 BLU=

ZCZC
SA212125 EHEH     EINDHOVEN/EINDHOVEN   NLD   22 m.
METAR EHEH 212125Z AUTO 28004KT 9999 FEW027 SCT260 18/16 Q1013
BLU NOSIG RMK TREND REMOTE BY EHWX=

ZCZC
SA212125 EHVK     VOLKEL/VOLKEL   NLD   21 m.
METAR EHVK 212125Z AUTO 29003KT 270V350 9999 OVC250 18/16 Q1012 BLU=

ZCZC
SA212125 EHBK     MAASTRICHT/MAASTRICHT-AACHEN   NLD   114 m.
METAR EHBK 212125Z AUTO 31005KT 270V010 9999 NSC 20/17 Q1013=

ZCZC
SA212125 EHKV     K14-FA-1C   NLD   41 m.
METAR EHKV 212125Z AUTO VRB09KT 9999 SCT011 SCT017 16/13 Q1013=

ZCZC
SA212125 EHMG     L9-FF-1   NLD   44 m.
METAR EHMG 212125Z AUTO 32010KT 9999 FEW004 SCT007 BKN015 17/15 Q1012
REDZ=

ZCZC
SA212125 EHMA     AWG-1   NLD   40 m.
METAR EHMA 212125Z AUTO 32019KT //// // FEW001 SCT005 BKN008 17/16
Q1011 RE//=

ZCZC
SA212125 EHDV     D15-FA-1   NLD   42 m.
METAR EHDV 212125Z AUTO 30010KT 9999 NSC 16/11 Q1012=

ZCZC
SA212125 EHAK     A12-CPP   NLD   48 m.
METAR EHAK 212125Z AUTO 34013KT 320V020 9999 FEW013/// BKN018///
15/12 Q1011=

ZCZC
SA212125 EHJA     J6-A   NLD   45 m.
METAR EHJA 212125Z AUTO 30009KT 9999 NSC 15/12 Q1012=

ZCZC
SA212125 EHPG     P11-B   NLD   41 m.
METAR EHPG 212125Z AUTO 29006KT 220V340 9999 NSC 17/12 Q1014=

ZCZC
SA212125 EHHW     BUITENGAATS/BG-OHVS2      42 m.
METAR EHHW 212125Z AUTO 32010KT 9999 SCT006/// BKN007/// BKN008///
17/15 Q1010=

21/07/2024 23.30 uur LT